createdAt,value
2022-10-17T00:01:39.317Z,99260.25
2022-10-17T00:04:05.892Z,99255.75
2022-10-17T00:06:32.469Z,99255.66
2022-10-17T00:08:58.947Z,99252.16
2022-10-17T00:11:25.422Z,99254.88
2022-10-17T00:13:55.258Z,99258.50
2022-10-17T00:16:34.079Z,99254.03
2022-10-17T00:19:00.791Z,99249.66
2022-10-17T00:21:27.318Z,99246.97
2022-10-17T00:23:54.470Z,99251.34
2022-10-17T00:26:21.429Z,99248.69
2022-10-17T00:28:50.571Z,99243.47
2022-10-17T00:31:18.862Z,99248.88
2022-10-17T00:33:45.897Z,99248.91
2022-10-17T00:36:18.768Z,99247.13
2022-10-17T00:38:48.115Z,99247.09
2022-10-17T00:41:17.302Z,99247.09
2022-10-17T00:44:01.818Z,99239.09
2022-10-17T00:46:37.625Z,99236.38
2022-10-17T00:49:10.207Z,99238.09
2022-10-17T00:52:00.108Z,99232.75
2022-10-17T00:54:48.307Z,99228.28
2022-10-17T00:57:16.491Z,99231.09
2022-10-17T00:59:45.642Z,99229.31
2022-10-17T01:02:16.034Z,99231.16
2022-10-17T01:04:46.829Z,99225.03
2022-10-17T01:07:13.586Z,99223.28
2022-10-17T01:09:41.361Z,99229.47
2022-10-17T01:12:15.022Z,99220.59
2022-10-17T01:15:03.052Z,99218.84
2022-10-17T01:17:39.938Z,99227.66
2022-10-17T01:20:21.386Z,99220.56
2022-10-17T01:23:05.469Z,99211.72
2022-10-17T01:25:53.620Z,99211.75
2022-10-17T01:28:38.468Z,99215.34
2022-10-17T01:31:04.953Z,99216.31
2022-10-17T01:33:37.621Z,99212.78
2022-10-17T01:36:12.832Z,99215.47
2022-10-17T01:38:53.305Z,99218.09
2022-10-17T01:41:28.964Z,99214.53
2022-10-17T01:44:11.589Z,99208.28
2022-10-17T01:46:41.258Z,99206.56
2022-10-17T01:49:11.073Z,99208.38
2022-10-17T01:51:46.559Z,99205.72
2022-10-17T01:54:24.902Z,99205.72
2022-10-17T01:56:56.612Z,99199.50
2022-10-17T01:59:29.477Z,99195.97
2022-10-17T02:01:57.740Z,99195.97
2022-10-17T02:04:25.610Z,99184.47
2022-10-17T02:06:52.262Z,99183.56
2022-10-17T02:09:23.158Z,99180.88
2022-10-17T02:12:14.421Z,99178.25
2022-10-17T02:15:16.998Z,99181.00
2022-10-17T02:17:57.572Z,99182.72
2022-10-17T02:20:31.632Z,99178.34
2022-10-17T02:23:16.214Z,99177.47
2022-10-17T02:25:48.899Z,99176.56
2022-10-17T02:28:24.228Z,99173.00
2022-10-17T02:31:26.925Z,99171.22
2022-10-17T02:34:06.855Z,99172.09
2022-10-17T02:36:39.205Z,99163.19
2022-10-17T02:39:07.818Z,99162.38
2022-10-17T02:41:36.183Z,99163.28
2022-10-17T02:44:05.106Z,99159.78
2022-10-17T02:46:33.663Z,99166.81
2022-10-17T02:49:10.783Z,99162.41
2022-10-17T02:51:46.901Z,99156.13
2022-10-17T02:54:21.615Z,99148.88
2022-10-17T02:56:55.099Z,99151.31
2022-10-17T02:59:25.070Z,99150.34
2022-10-17T03:01:52.032Z,99140.69
2022-10-17T03:04:19.235Z,99142.91
2022-10-17T03:06:48.023Z,99152.22
2022-10-17T03:09:14.828Z,99150.06
2022-10-17T03:11:41.606Z,99147.09
2022-10-17T03:14:08.200Z,99148.69
2022-10-17T03:16:34.694Z,99146.81
2022-10-17T03:19:01.209Z,99146.56
2022-10-17T03:21:27.746Z,99151.06
2022-10-17T03:23:54.214Z,99149.03
2022-10-17T03:26:20.998Z,99146.97
2022-10-17T03:28:50.683Z,99156.53
2022-10-17T03:31:20.132Z,99160.09
2022-10-17T03:33:46.960Z,99167.22
2022-10-17T03:36:16.605Z,99161.84
2022-10-17T03:38:44.249Z,99171.50
2022-10-17T03:41:10.972Z,99173.19
2022-10-17T03:43:37.944Z,99176.94
2022-10-17T03:46:04.634Z,99178.03
2022-10-17T03:48:32.000Z,99178.03
2022-10-17T03:51:01.296Z,99175.28
2022-10-17T03:53:28.340Z,99166.97
2022-10-17T03:55:55.154Z,99175.69
2022-10-17T03:58:21.628Z,99172.09
2022-10-17T04:00:48.350Z,99176.59
2022-10-17T04:03:17.404Z,99178.13
2022-10-17T04:05:43.984Z,99181.59
2022-10-17T04:08:13.465Z,99172.72
2022-10-17T04:10:39.910Z,99167.25
2022-10-17T04:13:06.775Z,99168.97
2022-10-17T04:15:33.279Z,99181.50
2022-10-17T04:17:59.793Z,99172.44
2022-10-17T04:20:26.311Z,99170.78
2022-10-17T04:22:52.795Z,99170.84
2022-10-17T04:25:19.262Z,99175.31
2022-10-17T04:27:45.847Z,99172.59
2022-10-17T04:30:12.318Z,99173.31
2022-10-17T04:32:39.147Z,99171.53
2022-10-17T04:35:06.238Z,99172.41
2022-10-17T04:37:32.758Z,99174.19
2022-10-17T04:39:59.394Z,99172.53
2022-10-17T04:42:25.916Z,99183.97
2022-10-17T04:44:52.515Z,99181.38
2022-10-17T04:47:18.965Z,99186.75
2022-10-17T04:49:45.476Z,99185.69
2022-10-17T04:52:12.072Z,99184.91
2022-10-17T04:54:38.558Z,99172.44
2022-10-17T04:57:05.034Z,99171.59
2022-10-17T04:59:31.547Z,99177.75
2022-10-17T05:01:58.004Z,99181.38
2022-10-17T05:04:25.335Z,99175.25
2022-10-17T05:06:51.782Z,99175.06
2022-10-17T05:09:18.315Z,99162.63
2022-10-17T05:11:44.759Z,99164.47
2022-10-17T05:14:11.205Z,99166.19
2022-10-17T05:16:37.705Z,99165.28
2022-10-17T05:19:04.202Z,99162.81
2022-10-17T05:21:30.733Z,99177.16
2022-10-17T05:23:57.655Z,99178.06
2022-10-17T05:26:25.142Z,99182.38
2022-10-17T05:28:54.813Z,99201.81
2022-10-17T05:31:21.450Z,99197.44
2022-10-17T05:33:48.036Z,99197.63
2022-10-17T05:36:14.523Z,99201.44
2022-10-17T05:38:40.981Z,99200.22
2022-10-17T05:41:11.020Z,99199.22
2022-10-17T05:43:37.539Z,99202.69
2022-10-17T05:46:07.140Z,99196.19
2022-10-17T05:48:34.357Z,99195.31
2022-10-17T05:51:07.210Z,99197.69
2022-10-17T05:53:37.195Z,99207.44
2022-10-17T05:56:07.080Z,99201.97
2022-10-17T05:58:52.377Z,99204.56
2022-10-17T06:01:20.985Z,99201.69
2022-10-17T06:03:47.505Z,99205.25
2022-10-17T06:06:15.599Z,99205.22
2022-10-17T06:08:42.294Z,99207.78
2022-10-17T06:11:10.374Z,99216.75
2022-10-17T06:13:38.109Z,99214.03
2022-10-17T06:16:04.932Z,99223.06
2022-10-17T06:18:31.454Z,99221.31
2022-10-17T06:21:06.261Z,99228.38
2022-10-17T06:23:33.051Z,99218.53
2022-10-17T06:26:04.583Z,99229.16
2022-10-17T06:28:31.492Z,99222.84
2022-10-17T06:30:58.084Z,99230.97
2022-10-17T06:33:24.939Z,99228.13
2022-10-17T06:35:55.465Z,99237.91
2022-10-17T06:38:22.858Z,99237.81
2022-10-17T06:40:49.491Z,99235.09
2022-10-17T06:43:16.025Z,99241.25
2022-10-17T06:45:42.624Z,99242.03
2022-10-17T06:50:53.238Z,99210.59
2022-10-17T06:53:19.752Z,99232.88
2022-10-17T06:55:46.244Z,99235.53
2022-10-17T06:58:12.751Z,99244.34
2022-10-17T07:00:39.277Z,99244.34
2022-10-17T07:03:05.808Z,99248.03
2022-10-17T07:05:32.269Z,99253.41
2022-10-17T07:07:58.720Z,99249.84
2022-10-17T07:10:26.611Z,99264.06
2022-10-17T07:12:53.061Z,99263.09
2022-10-17T07:15:19.562Z,99262.06
2022-10-17T07:17:50.431Z,99271.78
2022-10-17T07:20:17.030Z,99278.91
2022-10-17T07:22:43.568Z,99282.38
2022-10-17T07:25:10.185Z,99278.63
2022-10-17T07:27:36.655Z,99275.03
2022-10-17T07:30:03.219Z,99275.88
2022-10-17T07:32:29.698Z,99275.81
2022-10-17T07:34:56.142Z,99281.13
2022-10-17T07:37:22.605Z,99288.34
2022-10-17T07:39:49.285Z,99287.47
2022-10-17T07:42:15.777Z,99283.81
2022-10-17T07:44:42.420Z,99289.22
2022-10-17T07:47:08.943Z,99281.03
2022-10-17T07:49:35.469Z,99285.44
2022-10-17T07:52:01.945Z,99278.19
2022-10-17T07:54:28.484Z,99282.53
2022-10-17T07:56:54.928Z,99288.72
2022-10-17T07:59:21.453Z,99280.72
2022-10-17T08:01:47.969Z,99276.06
2022-10-17T08:04:16.768Z,99282.22
2022-10-17T08:06:43.311Z,99287.44
2022-10-17T08:09:09.785Z,99281.72
2022-10-17T08:11:37.222Z,99286.13
2022-10-17T08:14:03.887Z,99286.81
2022-10-17T08:16:31.006Z,99279.38
2022-10-17T08:18:57.492Z,99269.34
2022-10-17T08:21:24.017Z,99270.03
2022-10-17T08:23:50.465Z,99269.94
2022-10-17T08:26:19.936Z,99270.66
2022-10-17T08:28:47.019Z,99260.66
2022-10-17T08:31:18.356Z,99275.00
2022-10-17T08:33:45.872Z,99270.47
2022-10-17T08:36:18.534Z,99276.44
2022-10-17T08:38:47.985Z,99276.19
2022-10-17T08:41:25.711Z,99274.22
2022-10-17T08:44:18.851Z,99276.25
2022-10-17T08:46:49.041Z,99273.25
2022-10-17T08:49:48.442Z,99275.75
2022-10-17T08:52:35.471Z,99270.22
2022-10-17T08:55:01.978Z,99264.91
2022-10-17T08:57:29.286Z,99269.41
2022-10-17T08:59:56.813Z,99272.69
2022-10-17T09:03:01.507Z,99280.78
2022-10-17T09:05:49.353Z,99275.91
2022-10-17T09:08:31.951Z,99275.50
2022-10-17T09:11:29.297Z,99268.97
2022-10-17T09:14:23.132Z,99261.94
2022-10-17T09:17:14.529Z,99258.78
2022-10-17T09:19:49.080Z,99266.94
2022-10-17T09:22:21.829Z,99270.97
2022-10-17T09:24:51.263Z,99259.06
2022-10-17T09:27:25.250Z,99255.22
2022-10-17T09:30:21.357Z,99265.88
2022-10-17T09:32:57.876Z,99273.00
2022-10-17T09:35:27.453Z,99273.81
2022-10-17T09:37:54.715Z,99279.38
2022-10-17T09:40:29.039Z,99274.66
2022-10-17T09:42:55.593Z,99270.03
2022-10-17T09:45:27.536Z,99278.00
2022-10-17T09:48:26.350Z,99280.47
2022-10-17T09:51:02.633Z,99279.00
2022-10-17T09:53:42.696Z,99285.31
2022-10-17T09:56:14.026Z,99275.97
2022-10-17T09:58:54.681Z,99264.22
2022-10-17T10:01:28.913Z,99279.81
2022-10-17T10:04:13.371Z,99292.31
2022-10-17T10:06:41.178Z,99280.94
2022-10-17T10:16:19.830Z,99282.56
2022-10-17T10:18:50.032Z,99280.19
2022-10-17T10:21:23.698Z,99280.38
2022-10-17T10:24:09.941Z,99267.13
2022-10-17T10:26:44.025Z,99282.44
2022-10-17T10:29:32.100Z,99279.94
2022-10-17T10:32:19.222Z,99275.56
2022-10-17T10:34:56.692Z,99266.44
2022-10-17T10:37:30.018Z,99287.06
2022-10-17T10:40:05.861Z,99287.38
2022-10-17T10:42:35.155Z,99282.75
2022-10-17T10:45:29.348Z,99287.03
2022-10-17T10:48:05.468Z,99268.94
2022-10-17T10:50:34.692Z,99241.94
2022-10-17T10:53:04.168Z,99250.09
2022-10-17T10:55:35.671Z,99259.03
2022-10-17T10:58:20.090Z,99239.22
2022-10-17T11:00:47.881Z,99230.81
2022-10-17T11:03:26.442Z,99211.91
2022-10-17T11:06:02.840Z,99239.91
2022-10-17T11:08:35.437Z,99223.47
2022-10-17T11:11:27.848Z,99244.50
2022-10-17T11:13:58.884Z,99236.25
2022-10-17T11:16:40.280Z,99248.91
2022-10-17T11:19:26.744Z,99241.22
2022-10-17T11:22:26.629Z,99244.03
2022-10-17T11:25:01.281Z,99235.03
2022-10-17T11:27:29.482Z,99239.84
2022-10-17T11:29:56.787Z,99236.56
2022-10-17T11:32:48.938Z,99237.72
2022-10-17T11:35:21.204Z,99241.13
2022-10-17T11:37:51.406Z,99253.50
2022-10-17T11:40:24.769Z,99249.66
2022-10-17T11:42:58.506Z,99250.78
2022-10-17T11:45:28.495Z,99236.88
2022-10-17T11:48:07.107Z,99257.41
2022-10-17T11:54:00.467Z,99273.50
2022-10-17T11:56:42.704Z,99281.81
2022-10-17T11:59:37.007Z,99290.41
2022-10-17T12:02:09.551Z,99294.72
2022-10-17T12:05:06.875Z,99282.72
2022-10-17T12:07:51.530Z,99293.13
2022-10-17T12:10:36.930Z,99290.44
2022-10-17T12:13:28.083Z,99280.47
2022-10-17T12:15:55.953Z,99278.56
2022-10-17T12:18:25.590Z,99274.13
2022-10-17T12:21:01.126Z,99277.63
2022-10-17T12:23:32.247Z,99281.69
2022-10-17T12:26:05.424Z,99292.47
2022-10-17T12:28:38.304Z,99305.00
2022-10-17T12:31:17.245Z,99306.25
2022-10-17T12:33:46.424Z,99304.53
2022-10-17T12:36:18.984Z,99307.31
2022-10-17T12:38:49.994Z,99307.38
2022-10-17T12:41:37.123Z,99298.41
2022-10-17T12:44:23.866Z,99297.88
2022-10-17T12:47:05.334Z,99305.09
2022-10-17T12:49:45.801Z,99311.22
2022-10-17T12:52:35.427Z,99314.59
2022-10-17T12:55:13.493Z,99300.50
2022-10-17T12:57:52.885Z,99293.69
2022-10-17T13:00:36.028Z,99304.47
2022-10-17T13:03:16.768Z,99276.00
2022-10-17T13:05:52.591Z,99304.16
2022-10-17T13:08:28.209Z,99303.63
2022-10-17T13:10:55.397Z,99307.81
2022-10-17T13:13:28.652Z,99306.19
2022-10-17T13:15:55.705Z,99302.81
2022-10-17T13:18:25.464Z,99308.59
2022-10-17T13:21:14.694Z,99309.28
2022-10-17T13:23:41.249Z,99320.06
2022-10-17T13:26:16.380Z,99315.47
2022-10-17T13:28:43.968Z,99334.53
2022-10-17T13:31:43.867Z,99331.13
2022-10-17T13:34:24.559Z,99346.28
2022-10-17T13:36:54.348Z,99349.56
2022-10-17T13:39:38.380Z,99344.75
2022-10-17T13:42:25.831Z,99350.88
2022-10-17T13:44:52.710Z,99344.94
2022-10-17T13:47:25.089Z,99349.63
2022-10-17T13:49:55.223Z,99369.75
2022-10-17T13:52:25.312Z,99369.03
2022-10-17T13:54:53.639Z,99378.56
2022-10-17T13:57:29.067Z,99369.00
2022-10-17T13:59:59.100Z,99388.09
2022-10-17T14:02:30.899Z,99388.44
2022-10-17T14:05:22.930Z,99390.41
2022-10-17T14:10:43.359Z,99395.34
2022-10-17T14:13:22.768Z,99394.41
2022-10-17T14:15:50.038Z,99396.97
2022-10-17T14:18:35.706Z,99391.66
2022-10-17T14:23:51.880Z,99388.88
2022-10-17T14:26:18.448Z,99391.59
2022-10-17T14:28:48.304Z,99379.78
2022-10-17T14:31:30.113Z,99387.00
2022-10-17T14:33:57.308Z,99393.34
2022-10-17T14:36:32.996Z,99397.97
2022-10-17T14:39:00.084Z,99386.44
2022-10-17T14:41:42.872Z,99387.34
2022-10-17T14:44:21.785Z,99383.97
2022-10-17T14:46:53.147Z,99387.81
2022-10-17T14:49:39.903Z,99396.84
2022-10-17T14:52:23.542Z,99401.75
2022-10-17T14:54:50.310Z,99397.97
2022-10-17T14:57:23.304Z,99412.50
2022-10-17T14:59:54.774Z,99417.22
2022-10-17T15:02:23.486Z,99417.56
2022-10-17T15:04:50.048Z,99420.38
2022-10-17T15:07:17.608Z,99415.91
2022-10-17T15:09:45.524Z,99419.63
2022-10-17T15:12:15.931Z,99422.44
2022-10-17T15:14:43.414Z,99424.25
2022-10-17T15:17:15.912Z,99428.94
2022-10-17T15:19:42.443Z,99428.16
2022-10-17T15:22:08.962Z,99430.13
2022-10-17T15:24:35.520Z,99436.63
2022-10-17T15:27:02.089Z,99430.22
2022-10-17T15:29:28.927Z,99432.91
2022-10-17T15:31:55.483Z,99429.41
2022-10-17T15:34:21.989Z,99433.03
2022-10-17T15:36:51.203Z,99429.50
2022-10-17T15:39:17.659Z,99428.59
2022-10-17T15:41:44.214Z,99436.75
2022-10-17T15:44:10.718Z,99441.19
2022-10-17T15:46:39.951Z,99434.97
2022-10-17T15:49:11.192Z,99429.84
2022-10-17T15:51:38.104Z,99444.34
2022-10-17T15:54:06.204Z,99444.53
2022-10-17T15:56:37.189Z,99444.00
2022-10-17T15:59:15.477Z,99447.72
2022-10-17T16:01:42.575Z,99448.56
2022-10-17T16:04:14.708Z,99452.03
2022-10-17T16:06:44.383Z,99459.84
2022-10-17T16:09:11.162Z,99452.97
2022-10-17T16:11:40.250Z,99464.50
2022-10-17T16:14:11.126Z,99465.66
2022-10-17T16:16:37.987Z,99473.88
2022-10-17T16:19:05.027Z,99481.03
2022-10-17T16:21:35.012Z,99489.03
2022-10-17T16:24:01.878Z,99488.06
2022-10-17T16:26:28.896Z,99488.06
2022-10-17T16:28:57.894Z,99493.66
2022-10-17T16:31:29.290Z,99490.13
2022-10-17T16:33:57.915Z,99497.41
2022-10-17T16:36:24.436Z,99510.06
2022-10-17T16:38:52.462Z,99505.53
2022-10-17T16:41:23.380Z,99514.47
2022-10-17T16:43:51.534Z,99516.34
2022-10-17T16:46:18.667Z,99515.44
2022-10-17T16:48:46.033Z,99515.41
2022-10-17T16:51:13.959Z,99518.13
2022-10-17T16:53:43.766Z,99512.88
2022-10-17T16:56:15.587Z,99516.53
2022-10-17T16:58:42.547Z,99514.72
2022-10-17T17:01:23.238Z,99521.75
2022-10-17T17:03:51.467Z,99515.56
2022-10-17T17:06:24.255Z,99519.06
2022-10-17T17:08:51.053Z,99518.03
2022-10-17T17:11:20.311Z,99516.22
2022-10-17T17:13:47.438Z,99516.16
2022-10-17T17:16:18.553Z,99524.34
2022-10-17T17:18:46.099Z,99520.19
2022-10-17T17:21:13.228Z,99523.91
2022-10-17T17:23:40.925Z,99524.72
2022-10-17T17:26:11.095Z,99530.94
2022-10-17T17:28:39.097Z,99534.81
2022-10-17T17:31:10.702Z,99535.75
2022-10-17T17:33:39.094Z,99537.63
2022-10-17T17:36:06.302Z,99544.75
2022-10-17T17:38:34.922Z,99543.00
2022-10-17T17:41:02.394Z,99550.31
2022-10-17T17:43:29.149Z,99544.91
2022-10-17T17:45:55.899Z,99550.34
2022-10-17T17:48:22.381Z,99550.31
2022-10-17T17:50:49.005Z,99558.38
2022-10-17T17:53:16.606Z,99553.75
2022-10-17T17:55:43.166Z,99558.38
2022-10-17T17:58:11.205Z,99564.66
2022-10-17T18:00:38.367Z,99566.44
2022-10-17T18:03:05.085Z,99569.06
2022-10-17T18:05:31.811Z,99569.97
2022-10-17T18:07:58.774Z,99578.09
2022-10-17T18:10:25.260Z,99578.09
2022-10-17T18:12:52.187Z,99566.53
2022-10-17T18:15:18.805Z,99565.72
2022-10-17T18:17:45.685Z,99568.28
2022-10-17T18:20:12.393Z,99571.03
2022-10-17T18:22:38.938Z,99578.31
2022-10-17T18:25:06.606Z,99578.41
2022-10-17T18:27:33.394Z,99587.38
2022-10-17T18:29:59.923Z,99592.91
2022-10-17T18:32:26.620Z,99586.69
2022-10-17T18:34:53.098Z,99583.16
2022-10-17T18:37:20.137Z,99588.53
2022-10-17T18:39:51.606Z,99590.44
2022-10-17T18:42:18.563Z,99596.91
2022-10-17T18:44:45.546Z,99593.53
2022-10-17T18:47:12.106Z,99603.41
2022-10-17T18:49:38.658Z,99607.00
2022-10-17T18:52:05.480Z,99612.47
2022-10-17T18:54:33.438Z,99610.72
2022-10-17T18:57:02.816Z,99618.72
2022-10-17T18:59:29.651Z,99616.97
2022-10-17T19:01:56.306Z,99622.34
2022-10-17T19:04:22.819Z,99630.28
2022-10-17T19:06:49.342Z,99626.59
2022-10-17T19:09:16.035Z,99626.69
2022-10-17T19:11:43.555Z,99624.84
2022-10-17T19:14:14.944Z,99620.41
2022-10-17T19:16:44.933Z,99619.78
2022-10-17T19:19:14.587Z,99625.31
2022-10-17T19:21:43.538Z,99617.38
2022-10-17T19:24:19.537Z,99609.44
2022-10-17T19:26:47.728Z,99606.88
2022-10-17T19:29:17.224Z,99612.44
2022-10-17T19:31:44.121Z,99615.13
2022-10-17T19:34:12.136Z,99620.59
2022-10-17T19:36:39.281Z,99620.72
2022-10-17T19:39:08.764Z,99617.34
2022-10-17T19:41:36.413Z,99622.84
2022-10-17T19:44:03.524Z,99626.50
2022-10-17T19:46:31.403Z,99635.50
2022-10-17T19:48:58.550Z,99632.06
2022-10-17T19:51:26.413Z,99629.38
2022-10-17T19:53:55.382Z,99630.44
2022-10-17T19:56:23.851Z,99629.69
2022-10-17T19:58:51.053Z,99635.00
2022-10-17T20:01:20.782Z,99632.47
2022-10-17T20:03:47.552Z,99642.38
2022-10-17T20:06:15.076Z,99637.78
2022-10-17T20:08:42.229Z,99637.69
2022-10-17T20:11:12.805Z,99644.84
2022-10-17T20:13:39.860Z,99648.50
2022-10-17T20:16:09.121Z,99654.75
2022-10-17T20:18:35.686Z,99654.75
2022-10-17T20:21:08.289Z,99656.56
2022-10-17T20:23:34.851Z,99647.69
2022-10-17T20:26:13.624Z,99647.75
2022-10-17T20:28:50.828Z,99653.25
2022-10-17T20:31:18.115Z,99668.41
2022-10-17T20:33:44.664Z,99662.22
2022-10-17T20:36:13.627Z,99662.28
2022-10-17T20:38:40.143Z,99662.34
2022-10-17T20:41:08.860Z,99662.38
2022-10-17T20:43:36.046Z,99670.47
2022-10-17T20:46:09.758Z,99663.34
2022-10-17T20:48:53.062Z,99674.03
2022-10-17T20:51:20.626Z,99674.97
2022-10-17T20:53:48.034Z,99675.91
2022-10-17T20:56:21.474Z,99676.00
2022-10-17T20:59:10.519Z,99679.66
2022-10-17T21:01:37.015Z,99683.19
2022-10-17T21:04:33.151Z,99693.03
2022-10-17T21:06:52.163Z,99693.03
2022-10-17T21:09:19.032Z,99699.31
2022-10-17T21:11:45.929Z,99705.63
2022-10-17T21:14:12.810Z,99702.03
2022-10-17T21:16:40.207Z,99711.91
2022-10-17T21:19:06.814Z,99711.03
2022-10-17T21:21:36.266Z,99711.97
2022-10-17T21:24:06.364Z,99713.81
2022-10-17T21:26:34.813Z,99717.41
2022-10-17T21:29:05.880Z,99715.63
2022-10-17T21:31:37.758Z,99726.44
2022-10-17T21:34:10.018Z,99725.56
2022-10-17T21:36:36.681Z,99727.34
2022-10-17T21:39:03.617Z,99733.59
2022-10-17T21:41:31.395Z,99737.22
2022-10-17T21:44:03.486Z,99741.66
2022-10-17T21:46:30.403Z,99734.59
2022-10-17T21:48:59.049Z,99735.47
2022-10-17T21:51:26.362Z,99737.22
2022-10-17T21:53:55.692Z,99742.66
2022-10-17T21:56:27.987Z,99747.16
2022-10-17T21:58:55.373Z,99755.25
2022-10-17T22:01:27.138Z,99753.53
2022-10-17T22:03:57.645Z,99760.78
2022-10-17T22:06:42.524Z,99753.72
2022-10-17T22:09:14.454Z,99759.00
2022-10-17T22:11:41.311Z,99760.94
2022-10-17T22:14:16.060Z,99759.19
2022-10-17T22:16:44.968Z,99747.59
2022-10-17T22:19:13.277Z,99757.56
2022-10-17T22:21:39.937Z,99755.81
2022-10-17T22:24:08.866Z,99754.09
2022-10-17T22:26:39.762Z,99755.00
2022-10-17T22:29:07.742Z,99754.16
2022-10-17T22:31:35.549Z,99752.28
2022-10-17T22:34:03.559Z,99754.19
2022-10-17T22:36:32.132Z,99754.16
2022-10-17T22:38:58.614Z,99757.69
2022-10-17T22:41:25.067Z,99752.28
2022-10-17T22:43:51.586Z,99747.81
2022-10-17T22:46:18.362Z,99749.72
2022-10-17T22:48:44.986Z,99753.34
2022-10-17T22:51:11.745Z,99754.25
2022-10-17T22:53:38.670Z,99760.59
2022-10-17T22:56:11.559Z,99763.34
2022-10-17T22:58:38.748Z,99753.53
2022-10-17T23:01:06.712Z,99760.66
2022-10-17T23:03:34.088Z,99757.19
2022-10-17T23:06:01.102Z,99759.84
2022-10-17T23:08:28.155Z,99754.53
2022-10-17T23:10:54.688Z,99755.50
2022-10-17T23:13:24.430Z,99759.06
2022-10-17T23:15:55.483Z,99757.34
2022-10-17T23:18:23.343Z,99753.84
2022-10-17T23:20:50.261Z,99752.13
2022-10-17T23:23:17.564Z,99753.03
2022-10-17T23:25:44.892Z,99752.22
2022-10-17T23:28:12.193Z,99769.22
2022-10-17T23:30:39.539Z,99774.59
2022-10-17T23:33:06.567Z,99772.81
2022-10-17T23:35:33.813Z,99774.56
2022-10-17T23:38:00.331Z,99779.88
2022-10-17T23:40:26.801Z,99765.66
2022-10-17T23:42:53.270Z,99763.94
2022-10-17T23:45:19.807Z,99764.84
2022-10-17T23:47:46.431Z,99760.44
2022-10-17T23:50:12.989Z,99774.72
2022-10-17T23:52:39.638Z,99762.25
2022-10-17T23:55:06.986Z,99755.16
2022-10-17T23:57:34.026Z,99765.84
